Time;durP1;ratioP1;P1;durP2;ratioP2;P2;SDS_P1;SDS_P2;PMS_P1;PMS_P2;Temp;Humidity;BMP_temperature;BMP_pressure;BME280_temperature;BME280_humidity;BME280_pressure;Samples;Min_cycle;Max_cycle;Signal;HPM_P1;HPM_P2
2021/09/13 00:12:36;;;;;;;36.13;22.17;;;;;;;14.47;100.00;100403.19;20984086;27;20970;-65
2021/09/13 00:22:38;;;;;;;38.53;23.77;;;;;;;14.55;100.00;100400.72;20975460;28;20310;-67
2021/09/13 00:52:36;;;;;;;29.63;19.93;;;;;;;14.53;100.00;100401.81;21113442;27;20571;-64
2021/09/13 01:02:38;;;;;;;22.93;17.50;;;;;;;14.54;100.00;100415.13;21142103;28;20228;-65
2021/09/13 01:12:42;;;;;;;29.00;19.70;;;;;;;14.44;100.00;100403.41;21141383;28;20224;-65
2021/09/13 01:22:46;;;;;;;36.63;22.67;;;;;;;14.34;100.00;100402.41;21141924;28;20225;-65
2021/09/13 01:32:50;;;;;;;30.50;19.20;;;;;;;14.25;100.00;100400.44;21139641;28;20293;-65
2021/09/13 01:42:58;;;;;;;31.80;20.90;;;;;;;14.18;100.00;100404.56;21139873;28;22518;-66
2021/09/13 01:53:02;;;;;;;30.07;18.57;;;;;;;14.07;100.00;100394.66;21139187;28;20262;-65
2021/09/13 03:02:53;;;;;;;41.70;22.30;;;;;;;13.52;100.00;100393.53;20895667;28;20630;-67
2021/09/13 03:22:56;;;;;;;35.57;20.10;;;;;;;13.34;100.00;100393.06;20895348;28;20924;-66
2021/09/13 03:32:58;;;;;;;38.80;21.13;;;;;;;13.47;100.00;100410.91;20874485;28;20229;-66
2021/09/13 03:43:02;;;;;;;30.17;18.23;;;;;;;13.56;100.00;100420.94;20874037;28;20222;-67
2021/09/13 04:03:11;;;;;;;37.53;21.63;;;;;;;13.64;100.00;100414.03;20892791;28;20570;-66
2021/09/13 04:13:13;;;;;;;35.40;21.27;;;;;;;13.71;100.00;100427.84;20810709;28;20765;-67
2021/09/13 04:23:29;;;;;;;32.30;19.10;;;;;;;13.84;100.00;100420.56;20808589;28;20224;-66
2021/09/13 04:33:51;;;;;;;32.30;20.00;;;;;;;14.03;100.00;100425.38;20808780;28;20297;-66
2021/09/13 04:54:17;;;;;;;30.83;20.47;;;;;;;14.45;100.00;100441.84;20842565;27;20573;-67
2021/09/13 05:04:20;;;;;;;30.40;19.30;;;;;;;14.67;100.00;100453.47;20837069;28;20235;-70
2021/09/13 05:14:25;;;;;;;27.00;19.03;;;;;;;14.90;100.00;100453.47;20808163;28;20637;-68
2021/09/13 05:24:28;;;;;;;25.87;19.20;;;;;;;15.19;100.00;100460.06;20809086;28;20227;-68
2021/09/13 05:34:37;;;;;;;20.80;16.60;;;;;;;15.61;100.00;100470.97;20806862;28;20221;-68
2021/09/13 05:44:41;;;;;;;19.27;15.83;;;;;;;15.97;100.00;100470.59;20804472;28;20340;-68
2021/09/13 05:54:45;;;;;;;18.90;15.33;;;;;;;16.29;100.00;100472.41;20805196;28;20677;-68
2021/09/13 06:04:48;;;;;;;18.33;15.17;;;;;;;16.63;100.00;100476.63;20755836;28;20232;-68
2021/09/13 06:14:55;;;;;;;15.20;13.17;;;;;;;17.22;100.00;100483.97;20749477;28;20571;-69
2021/09/13 06:25:00;;;;;;;13.80;12.40;;;;;;;17.80;100.00;100481.41;20750112;28;20226;-69
2021/09/13 06:35:05;;;;;;;12.73;11.43;;;;;;;18.09;100.00;100476.88;20748627;28;20237;-68
2021/09/13 06:45:24;;;;;;;15.70;14.03;;;;;;;18.43;100.00;100473.72;20746758;28;20766;-68
2021/09/13 06:55:27;;;;;;;13.23;12.03;;;;;;;18.68;100.00;100473.13;20746629;28;20258;-69
2021/09/13 07:05:29;;;;;;;9.90;9.00;;;;;;;19.36;100.00;100482.63;20746592;28;20240;-69
2021/09/13 07:15:33;;;;;;;11.63;10.47;;;;;;;19.20;100.00;100487.00;20745241;28;20642;-70
2021/09/13 07:25:37;;;;;;;9.77;9.00;;;;;;;19.27;100.00;100482.69;20745374;28;20282;-70
2021/09/13 07:35:40;;;;;;;9.30;8.50;;;;;;;19.92;100.00;100492.44;20744108;28;20231;-69
2021/09/13 07:45:43;;;;;;;10.73;9.87;;;;;;;19.45;100.00;100497.09;20743773;28;20267;-70
2021/09/13 07:55:46;;;;;;;12.03;11.00;;;;;;;18.34;100.00;100506.00;20743024;28;20240;-70
2021/09/13 08:05:49;;;;;;;11.30;10.40;;;;;;;18.26;100.00;100516.66;20742017;28;20230;-70
2021/09/13 08:45:52;;;;;;;8.77;7.97;;;;;;;19.48;100.00;100512.19;20979047;27;20618;-69
2021/09/13 08:55:55;;;;;;;7.63;6.97;;;;;;;19.81;100.00;100524.28;20975501;28;20276;-69
2021/09/13 09:15:59;;;;;;;6.03;5.63;;;;;;;20.72;100.00;100523.09;20895438;28;20562;-69
2021/09/13 09:26:12;;;;;;;5.70;5.40;;;;;;;20.52;100.00;100525.19;20892922;28;20322;-69
2021/09/13 09:46:13;;;;;;;3.57;3.30;;;;;;;22.64;100.00;100525.81;21158182;27;20577;-69
2021/09/13 09:56:16;;;;;;;4.20;3.90;;;;;;;22.68;100.00;100523.59;21143341;27;20593;-69
2021/09/13 10:06:20;;;;;;;4.60;4.30;;;;;;;21.97;100.00;100524.22;21142455;27;20291;-68
2021/09/13 10:16:23;;;;;;;5.20;4.80;;;;;;;21.52;100.00;100524.59;21141545;27;20236;-69
2021/09/13 10:26:27;;;;;;;5.20;4.90;;;;;;;21.26;100.00;100523.78;21140543;27;20279;-69
2021/09/13 10:37:00;;;;;;;5.00;4.70;;;;;;;21.48;100.00;100528.66;21139943;27;20759;-69
2021/09/13 10:57:06;;;;;;;5.73;5.33;;;;;;;20.39;100.00;100511.16;21098751;27;1370158;-69
2021/09/13 11:07:08;;;;;;;4.37;4.07;;;;;;;20.34;100.00;100517.03;21058675;28;20226;-69
2021/09/13 11:17:12;;;;;;;4.73;4.00;;;;;;;20.93;100.00;100523.59;21056950;28;20244;-69
2021/09/13 11:27:15;;;;;;;3.63;3.20;;;;;;;21.51;100.00;100520.16;21057549;28;20606;-69
2021/09/13 11:47:19;;;;;;;3.27;3.00;;;;;;;22.91;100.00;100518.31;20988940;27;20940;-69
2021/09/13 11:57:31;;;;;;;3.23;3.03;;;;;;;22.62;100.00;100503.34;20975344;28;20627;-68
2021/09/13 12:07:34;;;;;;;3.13;2.93;;;;;;;22.40;100.00;100514.94;20973195;28;20233;-68
2021/09/13 12:17:40;;;;;;;3.30;3.20;;;;;;;22.03;100.00;100514.56;20973637;28;20723;-67
2021/09/13 12:27:47;;;;;;;3.13;2.93;;;;;;;22.94;100.00;100497.03;20972900;28;20243;-68
2021/09/13 12:37:53;;;;;;;3.47;3.27;;;;;;;22.56;100.00;100487.75;20971375;28;20253;-68
2021/09/13 12:47:59;;;;;;;5.03;4.70;;;;;;;21.42;100.00;100503.00;20971202;28;20235;-68
2021/09/13 12:58:03;;;;;;;4.97;4.60;;;;;;;20.38;100.00;100504.91;20918769;28;20592;-67
2021/09/13 13:08:07;;;;;;;4.97;4.50;;;;;;;19.99;100.00;100506.19;20997786;28;20727;-68
2021/09/13 13:18:12;;;;;;;3.90;3.70;;;;;;;19.92;100.00;100499.72;20996883;28;20341;-68
2021/09/13 13:28:18;;;;;;;2.83;2.73;;;;;;;20.19;100.00;100507.72;20965033;28;20233;-67
2021/09/13 13:38:23;;;;;;;2.30;2.20;;;;;;;21.10;100.00;100503.69;20859043;28;20227;-69
2021/09/13 13:48:30;;;;;;;2.50;2.40;;;;;;;21.51;100.00;100501.16;20855427;28;20758;-65
2021/09/13 13:58:33;;;;;;;2.77;2.67;;;;;;;21.68;100.00;100497.47;20856828;28;21080;-67
2021/09/13 14:08:37;;;;;;;3.80;3.60;;;;;;;21.42;100.00;100496.72;20867253;28;20247;-66
2021/09/13 14:18:40;;;;;;;4.70;4.40;;;;;;;20.94;100.00;100503.59;20864437;28;20236;-69
2021/09/13 14:28:44;;;;;;;10.73;7.90;;;;;;;20.47;100.00;100516.66;20852162;28;20744;-66
2021/09/13 14:38:47;;;;;;;5.53;5.03;;;;;;;20.36;100.00;100515.03;20826209;28;21949;-66
2021/09/13 14:48:51;;;;;;;8.40;6.57;;;;;;;20.24;100.00;100521.69;20838677;28;20235;-69
2021/09/13 14:58:53;;;;;;;14.30;12.77;;;;;;;20.47;100.00;100517.50;20827925;28;20597;-67
2021/09/13 15:09:00;;;;;;;5.43;4.93;;;;;;;20.27;100.00;100525.94;20825779;28;20751;-67
2021/09/13 15:19:03;;;;;;;5.10;4.70;;;;;;;19.97;100.00;100517.19;20840222;28;20243;-67
2021/09/13 15:29:11;;;;;;;5.60;5.20;;;;;;;19.93;100.00;100517.63;20835993;28;20322;-67
2021/09/13 15:39:16;;;;;;;5.27;4.87;;;;;;;19.91;100.00;100508.84;20842984;28;20345;-69
2021/09/13 19:01:57;;;;;;;6.53;5.90;;;;;;;13.46;100.00;100610.28;20744188;27;20612;-66
2021/09/13 19:12:01;;;;;;;5.40;5.00;;;;;;;13.15;100.00;100619.63;20706766;28;20349;-67
2021/09/13 19:22:05;;;;;;;5.47;4.97;;;;;;;13.01;100.00;100631.28;20733774;28;20308;-69
2021/09/13 19:32:08;;;;;;;6.40;5.90;;;;;;;12.96;100.00;100638.75;20733682;28;20347;-68
2021/09/13 19:42:15;;;;;;;6.10;5.60;;;;;;;12.88;100.00;100660.72;20728817;28;20231;-69
2021/09/13 19:52:18;;;;;;;5.90;5.30;;;;;;;12.66;100.00;100659.63;20725108;28;20288;-70
2021/09/13 20:02:23;;;;;;;5.43;5.03;;;;;;;12.30;100.00;100653.09;20727581;28;20285;-67
2021/09/13 20:12:28;;;;;;;4.03;3.73;;;;;;;12.08;100.00;100668.81;20669332;28;21516;-67
2021/09/13 20:22:32;;;;;;;4.63;4.23;;;;;;;11.89;100.00;100670.00;20663857;28;20317;-63
2021/09/13 20:32:35;;;;;;;4.57;4.27;;;;;;;11.81;100.00;100676.81;20674397;28;20232;-64
2021/09/13 20:42:39;;;;;;;4.53;4.10;;;;;;;11.88;100.00;100684.34;20668686;28;21075;-65
2021/09/13 20:52:41;;;;;;;4.37;4.07;;;;;;;12.24;100.00;100688.25;20670168;28;20239;-67
2021/09/13 21:02:46;;;;;;;4.47;4.17;;;;;;;12.29;100.00;100694.19;20731821;28;20234;-66
2021/09/13 21:12:50;;;;;;;4.40;4.00;;;;;;;11.97;100.00;100688.22;20744921;28;20244;-64
2021/09/13 21:22:54;;;;;;;4.40;4.10;;;;;;;11.78;100.00;100682.34;20745652;28;20231;-65
2021/09/13 21:32:58;;;;;;;4.23;3.87;;;;;;;11.79;100.00;100695.63;20745810;28;20252;-62
2021/09/13 21:43:03;;;;;;;4.93;4.50;;;;;;;11.86;100.00;100701.41;20744814;28;20286;-65
2021/09/13 21:53:05;;;;;;;4.67;4.30;;;;;;;11.88;100.00;100708.41;20743934;28;20251;-64
2021/09/13 22:03:09;;;;;;;4.53;4.23;;;;;;;12.01;100.00;100716.50;20743484;28;20235;-65
2021/09/13 22:13:12;;;;;;;5.23;4.70;;;;;;;12.28;100.00;100724.56;20742485;28;20283;-69
2021/09/13 22:23:16;;;;;;;4.73;4.33;;;;;;;12.53;100.00;100718.47;20742336;28;20314;-65
2021/09/13 22:33:18;;;;;;;3.97;3.60;;;;;;;12.70;100.00;100722.69;20741349;28;20231;-64
2021/09/13 22:43:23;;;;;;;4.30;3.90;;;;;;;12.81;100.00;100729.06;20741178;28;20268;-64
2021/09/13 22:53:25;;;;;;;4.03;3.43;;;;;;;12.84;100.00;100728.00;20740445;28;20230;-66
2021/09/13 23:03:30;;;;;;;3.77;3.47;;;;;;;12.84;100.00;100728.00;20740289;28;20291;-64
2021/09/13 23:13:35;;;;;;;4.70;4.20;;;;;;;12.84;100.00;100730.66;20739748;28;20266;-64
2021/09/13 23:23:38;;;;;;;4.20;3.90;;;;;;;12.88;100.00;100729.50;20739469;28;20226;-63
2021/09/13 23:33:41;;;;;;;3.53;3.33;;;;;;;12.97;100.00;100737.78;20739032;28;20224;-64
2021/09/13 23:43:45;;;;;;;3.77;3.47;;;;;;;13.05;100.00;100747.09;20746374;28;20219;-64
2021/09/13 23:53:48;;;;;;;3.53;3.23;;;;;;;13.10;100.00;100748.53;20753060;28;20334;-64
